createdAt,value
2022-11-17T00:02:19.016Z,94.63
2022-11-17T00:05:22.695Z,94.15
2022-11-17T00:08:25.281Z,93.99
2022-11-17T00:11:48.280Z,94.13
2022-11-17T00:14:52.543Z,94.24
2022-11-17T00:18:14.313Z,94.29
2022-11-17T00:21:23.738Z,94.22
2022-11-17T00:24:26.789Z,94.10
2022-11-17T00:27:29.412Z,94.28
2022-11-17T00:30:51.102Z,94.54
2022-11-17T00:34:07.213Z,94.67
2022-11-17T00:37:12.072Z,94.24
2022-11-17T00:40:15.868Z,94.46
2022-11-17T00:43:18.698Z,94.49
2022-11-17T00:46:21.288Z,94.17
2022-11-17T00:49:27.558Z,94.23
2022-11-17T00:52:30.412Z,94.28
2022-11-17T00:55:33.238Z,94.23
2022-11-17T00:58:36.671Z,94.24
2022-11-17T01:01:40.072Z,94.68
2022-11-17T01:04:42.771Z,94.14
2022-11-17T01:07:47.094Z,94.29
2022-11-17T01:10:49.700Z,94.68
2022-11-17T01:13:55.953Z,94.06
2022-11-17T01:16:58.819Z,93.97
2022-11-17T01:20:01.830Z,94.23
2022-11-17T01:23:04.417Z,94.71
2022-11-17T01:26:11.266Z,94.95
2022-11-17T01:29:17.417Z,94.67
2022-11-17T01:32:20.320Z,94.48
2022-11-17T01:35:23.037Z,94.85
2022-11-17T01:38:25.937Z,95.30
2022-11-17T01:41:28.957Z,95.23
2022-11-17T01:45:00.914Z,95.29
2022-11-17T01:48:06.516Z,95.01
2022-11-17T01:51:11.915Z,95.31
2022-11-17T01:54:18.523Z,94.97
2022-11-17T01:57:27.722Z,94.37
2022-11-17T02:00:30.412Z,94.22
2022-11-17T02:03:34.841Z,94.21
2022-11-17T02:06:40.860Z,94.11
2022-11-17T02:09:44.199Z,94.23
2022-11-17T02:12:50.319Z,94.29
2022-11-17T02:15:52.833Z,94.26
2022-11-17T02:18:55.831Z,93.76
2022-11-17T02:22:26.321Z,93.62
2022-11-17T02:25:35.011Z,92.54
2022-11-17T02:28:42.702Z,93.26
2022-11-17T02:32:01.717Z,93.04
2022-11-17T02:35:10.049Z,93.09
2022-11-17T02:38:32.729Z,93.07
2022-11-17T02:41:45.292Z,93.38
2022-11-17T02:44:59.812Z,93.41
2022-11-17T02:48:12.396Z,93.44
2022-11-17T02:51:22.586Z,93.95
2022-11-17T02:54:28.543Z,94.32
2022-11-17T02:57:40.231Z,94.21
2022-11-17T03:01:08.684Z,93.93
2022-11-17T03:04:42.272Z,93.93
2022-11-17T03:07:56.669Z,94.06
2022-11-17T03:10:59.660Z,94.02
2022-11-17T03:14:41.160Z,94.52
2022-11-17T03:18:12.431Z,94.47
2022-11-17T03:21:22.892Z,94.79
2022-11-17T03:24:32.894Z,94.73
2022-11-17T03:27:45.818Z,94.94
2022-11-17T03:30:51.111Z,94.48
2022-11-17T03:33:54.769Z,94.79
2022-11-17T03:37:03.676Z,95.02
2022-11-17T03:40:11.311Z,95.10
2022-11-17T03:43:18.031Z,95.24
2022-11-17T03:46:24.396Z,94.97
2022-11-17T03:49:52.321Z,95.25
2022-11-17T03:52:55.099Z,94.69
2022-11-17T03:56:06.985Z,94.91
2022-11-17T03:59:19.217Z,94.69
2022-11-17T04:02:24.196Z,94.77
2022-11-17T04:05:27.453Z,95.07
2022-11-17T04:08:30.957Z,94.94
2022-11-17T04:11:52.530Z,94.93
2022-11-17T04:15:13.677Z,95.19
2022-11-17T04:18:16.733Z,95.01
2022-11-17T04:21:19.337Z,95.12
2022-11-17T04:24:22.339Z,94.95
2022-11-17T04:27:43.488Z,94.77
2022-11-17T04:30:46.357Z,95.36
2022-11-17T04:33:53.829Z,95.10
2022-11-17T04:36:56.905Z,94.27
2022-11-17T04:39:59.500Z,94.04
2022-11-17T04:43:02.324Z,94.22
2022-11-17T04:46:05.124Z,94.33
2022-11-17T04:49:08.915Z,94.73
2022-11-17T04:52:11.925Z,94.35
2022-11-17T04:55:14.873Z,94.47
2022-11-17T04:58:17.500Z,94.50
2022-11-17T05:01:22.516Z,94.59
2022-11-17T05:04:43.591Z,93.73
2022-11-17T05:07:46.516Z,93.34
2022-11-17T05:11:07.598Z,93.22
2022-11-17T05:14:11.353Z,93.26
2022-11-17T05:17:13.910Z,92.58
2022-11-17T05:20:18.537Z,92.42
2022-11-17T05:23:39.821Z,92.65
2022-11-17T05:26:46.718Z,92.54
2022-11-17T05:29:49.346Z,92.40
2022-11-17T05:32:52.241Z,92.48
2022-11-17T05:35:54.843Z,92.92
2022-11-17T05:38:57.921Z,92.63
2022-11-17T05:42:00.692Z,93.19
2022-11-17T05:45:03.750Z,93.03
2022-11-17T05:48:06.752Z,92.64
2022-11-17T05:51:10.453Z,92.65
2022-11-17T05:54:12.957Z,92.61
2022-11-17T05:57:27.058Z,92.94
2022-11-17T06:00:31.085Z,93.11
2022-11-17T06:03:39.950Z,93.15
2022-11-17T06:06:42.519Z,93.37
2022-11-17T06:09:46.519Z,93.38
2022-11-17T06:12:49.155Z,93.83
2022-11-17T06:15:54.311Z,93.81
2022-11-17T06:19:09.940Z,94.07
2022-11-17T06:22:13.788Z,94.74
2022-11-17T06:25:18.858Z,94.79
2022-11-17T06:28:22.690Z,95.10
2022-11-17T06:31:28.342Z,95.47
2022-11-17T06:34:33.032Z,96.14
2022-11-17T06:37:35.765Z,96.13
2022-11-17T06:40:38.664Z,96.85
2022-11-17T06:43:41.248Z,96.80
2022-11-17T06:46:48.823Z,96.89
2022-11-17T06:49:51.855Z,96.90
2022-11-17T06:52:59.333Z,97.37
2022-11-17T06:56:04.817Z,97.65
2022-11-17T06:59:07.733Z,97.30
2022-11-17T07:02:10.577Z,96.85
2022-11-17T07:05:13.460Z,96.65
2022-11-17T07:08:16.050Z,96.31
2022-11-17T07:11:19.364Z,95.82
2022-11-17T07:14:22.085Z,95.21
2022-11-17T07:17:25.044Z,95.47
2022-11-17T07:20:27.807Z,95.68
2022-11-17T07:23:32.850Z,95.69
2022-11-17T07:26:35.585Z,95.29
2022-11-17T07:29:38.519Z,95.10
2022-11-17T07:32:44.043Z,94.76
2022-11-17T07:35:47.080Z,94.57
2022-11-17T07:38:49.668Z,94.28
2022-11-17T07:41:52.594Z,94.14
2022-11-17T07:44:55.228Z,94.08
2022-11-17T07:48:00.347Z,93.89
2022-11-17T07:51:04.083Z,93.98
2022-11-17T07:54:06.923Z,93.70
2022-11-17T07:57:09.540Z,93.79
2022-11-17T08:00:13.960Z,93.55
2022-11-17T08:03:17.027Z,93.40
2022-11-17T08:06:20.066Z,93.47
2022-11-17T08:09:22.962Z,93.37
2022-11-17T08:12:25.589Z,93.17
2022-11-17T08:15:29.738Z,93.35
2022-11-17T08:18:33.242Z,93.37
2022-11-17T08:21:37.507Z,93.75
2022-11-17T08:24:40.169Z,93.97
2022-11-17T08:27:44.324Z,94.02
2022-11-17T08:30:47.499Z,94.17
2022-11-17T08:33:50.391Z,94.26
2022-11-17T08:36:52.901Z,94.19
2022-11-17T08:39:55.820Z,94.12
2022-11-17T08:43:01.211Z,94.23
2022-11-17T08:46:04.983Z,94.21
2022-11-17T08:49:07.648Z,93.92
2022-11-17T08:52:10.596Z,93.54
2022-11-17T08:55:13.215Z,92.05
2022-11-17T08:58:18.103Z,91.01
2022-11-17T09:01:20.664Z,90.46
2022-11-17T09:04:23.677Z,90.10
2022-11-17T09:07:28.394Z,85.42
2022-11-17T09:10:38.177Z,83.71
2022-11-17T09:13:41.030Z,82.69
2022-11-17T09:16:43.950Z,83.64
2022-11-17T09:19:46.591Z,83.33
2022-11-17T09:22:49.606Z,82.49
2022-11-17T09:25:52.576Z,82.07
2022-11-17T09:28:55.532Z,81.79
2022-11-17T09:31:58.178Z,83.41
2022-11-17T09:35:01.181Z,81.59
2022-11-17T09:38:03.944Z,82.74
2022-11-17T09:41:39.210Z,83.10
2022-11-17T09:44:51.617Z,83.74
2022-11-17T09:48:12.645Z,83.84
2022-11-17T09:51:25.707Z,83.49
2022-11-17T09:54:51.282Z,83.31
2022-11-17T09:58:31.379Z,82.88
2022-11-17T10:01:34.383Z,81.25
2022-11-17T10:04:37.396Z,78.73
2022-11-17T10:07:47.202Z,79.74
2022-11-17T10:10:51.711Z,79.79
2022-11-17T10:13:54.430Z,80.02
2022-11-17T10:16:59.444Z,79.98
2022-11-17T10:20:02.089Z,80.74
2022-11-17T10:23:05.171Z,80.43
2022-11-17T10:26:11.146Z,80.66
2022-11-17T10:29:22.121Z,79.82
2022-11-17T10:32:25.808Z,80.55
2022-11-17T10:35:31.697Z,80.79
2022-11-17T10:38:35.545Z,79.99
2022-11-17T10:41:45.439Z,79.38
2022-11-17T10:44:52.564Z,78.07
2022-11-17T10:48:20.215Z,77.31
2022-11-17T10:51:32.645Z,76.64
2022-11-17T10:54:35.666Z,74.80
2022-11-17T10:57:44.373Z,73.38
2022-11-17T11:00:54.814Z,72.51
2022-11-17T11:03:57.465Z,71.91
2022-11-17T11:07:19.439Z,71.77
2022-11-17T11:10:32.125Z,70.79
2022-11-17T11:13:43.933Z,72.90
2022-11-17T11:16:48.601Z,71.83
2022-11-17T11:19:54.520Z,73.90
2022-11-17T11:23:08.876Z,73.14
2022-11-17T11:26:40.572Z,73.57
2022-11-17T11:30:13.225Z,73.27
2022-11-17T11:33:47.875Z,73.39
2022-11-17T11:37:05.785Z,72.91
2022-11-17T11:40:40.296Z,72.94
2022-11-17T11:44:20.580Z,71.87
2022-11-17T11:47:35.417Z,72.67
2022-11-17T11:50:43.477Z,70.41
2022-11-17T11:53:58.730Z,68.14
2022-11-17T11:57:01.995Z,67.63
2022-11-17T12:00:07.980Z,67.75
2022-11-17T12:03:16.650Z,67.62
2022-11-17T12:06:42.299Z,68.93
2022-11-17T12:09:54.157Z,69.10
2022-11-17T12:12:57.642Z,69.78
2022-11-17T12:16:20.456Z,69.98
2022-11-17T12:19:44.838Z,68.38
2022-11-17T12:23:16.098Z,65.00
2022-11-17T12:26:28.005Z,66.22
2022-11-17T12:29:31.991Z,67.53
2022-11-17T12:32:46.603Z,68.37
2022-11-17T12:36:29.805Z,70.24
2022-11-17T12:39:56.089Z,70.81
2022-11-17T12:43:17.624Z,70.99
2022-11-17T12:46:27.223Z,71.88
2022-11-17T12:50:06.797Z,72.40
2022-11-17T12:53:09.296Z,73.07
2022-11-17T12:56:18.329Z,73.24
2022-11-17T12:59:35.351Z,73.37
2022-11-17T13:02:41.026Z,73.04
2022-11-17T13:05:43.708Z,72.67
2022-11-17T13:09:00.865Z,73.31
2022-11-17T13:12:08.272Z,74.11
2022-11-17T13:15:23.992Z,74.18
2022-11-17T13:18:34.010Z,73.76
2022-11-17T13:21:36.927Z,72.70
2022-11-17T13:24:42.105Z,72.27
2022-11-17T13:27:49.403Z,71.37
2022-11-17T13:30:57.655Z,70.35
2022-11-17T13:34:06.610Z,71.14
2022-11-17T13:37:19.514Z,71.49
2022-11-17T13:40:22.966Z,72.59
2022-11-17T13:43:28.675Z,72.08
2022-11-17T13:46:31.610Z,73.22
2022-11-17T13:49:38.714Z,73.14
2022-11-17T13:52:46.919Z,74.50
2022-11-17T13:55:50.949Z,74.43
2022-11-17T13:58:54.477Z,75.32
2022-11-17T14:02:30.073Z,74.81
2022-11-17T14:05:35.340Z,74.68
2022-11-17T14:08:39.911Z,74.77
2022-11-17T14:11:43.015Z,75.16
2022-11-17T14:14:46.329Z,75.24
2022-11-17T14:18:05.573Z,76.69
2022-11-17T14:21:14.532Z,76.24
2022-11-17T14:24:17.932Z,77.47
2022-11-17T14:27:29.924Z,77.83
2022-11-17T14:30:32.970Z,77.99
2022-11-17T14:33:35.548Z,78.74
2022-11-17T14:36:40.656Z,78.37
2022-11-17T14:39:43.440Z,78.85
2022-11-17T14:42:46.414Z,79.21
2022-11-17T14:45:51.867Z,79.04
2022-11-17T14:48:55.907Z,79.53
2022-11-17T14:51:59.421Z,79.42
2022-11-17T14:55:02.544Z,80.18
2022-11-17T14:58:05.122Z,79.66
2022-11-17T15:01:25.570Z,80.45
2022-11-17T15:04:49.529Z,81.02
2022-11-17T15:07:51.109Z,80.34
2022-11-17T15:10:55.460Z,80.58
2022-11-17T15:14:05.590Z,80.53
2022-11-17T15:17:13.843Z,80.91
2022-11-17T15:20:17.845Z,81.31
2022-11-17T15:23:20.426Z,82.62
2022-11-17T15:26:26.375Z,81.08
2022-11-17T15:29:28.966Z,81.34
2022-11-17T15:32:32.896Z,81.12
2022-11-17T15:35:36.448Z,82.03
2022-11-17T15:38:40.639Z,82.24
2022-11-17T15:41:44.062Z,81.45
2022-11-17T15:44:46.943Z,80.91
2022-11-17T15:47:49.943Z,79.90
2022-11-17T15:50:57.943Z,79.89
2022-11-17T15:54:00.769Z,79.83
2022-11-17T15:57:04.229Z,79.81
2022-11-17T16:00:07.673Z,79.70
2022-11-17T16:03:12.921Z,79.86
2022-11-17T16:06:15.460Z,79.24
2022-11-17T16:09:18.574Z,79.05
2022-11-17T16:12:21.218Z,78.95
2022-11-17T16:15:24.155Z,78.77
2022-11-17T16:18:26.876Z,78.82
2022-11-17T16:21:29.876Z,78.60
2022-11-17T16:24:32.514Z,78.70
2022-11-17T16:27:35.396Z,79.13
2022-11-17T16:30:38.049Z,79.79
2022-11-17T16:33:41.329Z,79.89
2022-11-17T16:36:44.404Z,79.82
2022-11-17T16:39:47.265Z,80.12
2022-11-17T16:42:50.015Z,80.63
2022-11-17T16:45:52.995Z,79.95
2022-11-17T16:48:56.569Z,80.96
2022-11-17T16:51:59.831Z,80.98
2022-11-17T16:55:05.177Z,81.12
2022-11-17T16:58:10.384Z,80.76
2022-11-17T17:01:15.126Z,81.20
2022-11-17T17:04:18.509Z,80.64
2022-11-17T17:07:24.202Z,81.14
2022-11-17T17:10:29.235Z,81.03
2022-11-17T17:13:32.141Z,80.91
2022-11-17T17:16:37.012Z,81.53
2022-11-17T17:19:39.620Z,82.08
2022-11-17T17:22:43.517Z,81.50
2022-11-17T17:25:46.781Z,81.13
2022-11-17T17:28:51.984Z,81.31
2022-11-17T17:31:55.096Z,81.13
2022-11-17T17:34:58.771Z,80.86
2022-11-17T17:38:01.922Z,81.57
2022-11-17T17:41:15.458Z,82.23
2022-11-17T17:44:22.085Z,82.00
2022-11-17T17:47:25.252Z,81.96
2022-11-17T17:50:28.127Z,82.14
2022-11-17T17:53:31.300Z,81.85
2022-11-17T17:56:35.277Z,81.95
2022-11-17T17:59:38.473Z,81.61
2022-11-17T18:02:41.400Z,81.25
2022-11-17T18:05:44.723Z,81.52
2022-11-17T18:08:48.314Z,80.75
2022-11-17T18:11:51.651Z,80.52
2022-11-17T18:14:54.370Z,81.40
2022-11-17T18:17:59.084Z,81.33
2022-11-17T18:21:04.253Z,81.79
2022-11-17T18:24:07.995Z,82.94
2022-11-17T18:27:11.689Z,83.32
2022-11-17T18:30:16.291Z,84.31
2022-11-17T18:33:19.322Z,84.38
2022-11-17T18:36:23.041Z,84.33
2022-11-17T18:39:27.915Z,83.77
2022-11-17T18:42:32.805Z,83.96
2022-11-17T18:45:37.667Z,84.29
2022-11-17T18:48:43.351Z,84.25
2022-11-17T18:51:48.073Z,84.43
2022-11-17T18:54:50.946Z,84.17
2022-11-17T18:57:53.543Z,84.14
2022-11-17T19:01:10.406Z,83.65
2022-11-17T19:04:15.210Z,83.42
2022-11-17T19:07:18.642Z,83.94
2022-11-17T19:10:21.886Z,84.46
2022-11-17T19:13:26.140Z,84.95
2022-11-17T19:16:29.686Z,84.89
2022-11-17T19:19:33.079Z,85.52
2022-11-17T19:22:35.646Z,86.21
2022-11-17T19:25:41.000Z,86.45
2022-11-17T19:28:45.067Z,85.36
2022-11-17T19:31:48.876Z,85.19
2022-11-17T19:34:52.001Z,86.40
2022-11-17T19:37:58.786Z,88.49
2022-11-17T19:41:05.946Z,88.55
2022-11-17T19:44:09.808Z,87.95
2022-11-17T19:47:12.690Z,87.65
2022-11-17T19:50:16.302Z,88.36
2022-11-17T19:53:19.562Z,87.71
2022-11-17T19:56:24.250Z,87.75
2022-11-17T19:59:27.318Z,88.27
2022-11-17T20:02:30.802Z,88.08
2022-11-17T20:05:36.579Z,89.59
2022-11-17T20:08:40.191Z,89.82
2022-11-17T20:11:44.219Z,88.83
2022-11-17T20:14:47.989Z,88.55
2022-11-17T20:17:51.380Z,88.73
2022-11-17T20:20:55.113Z,89.00
2022-11-17T20:23:59.433Z,88.37
2022-11-17T20:27:02.423Z,88.54
2022-11-17T20:30:07.230Z,88.47
2022-11-17T20:33:13.158Z,87.87
2022-11-17T20:36:19.611Z,87.45
2022-11-17T20:39:22.278Z,87.46
2022-11-17T20:42:25.561Z,88.03
2022-11-17T20:45:29.636Z,87.67
2022-11-17T20:48:34.722Z,87.12
2022-11-17T20:51:37.876Z,87.02
2022-11-17T20:54:41.526Z,87.53
2022-11-17T20:57:44.396Z,87.14
2022-11-17T21:00:48.311Z,86.77
2022-11-17T21:03:52.920Z,86.55
2022-11-17T21:07:00.084Z,86.36
2022-11-17T21:10:02.865Z,86.82
2022-11-17T21:13:05.952Z,86.89
2022-11-17T21:16:14.977Z,86.39
2022-11-17T21:19:19.008Z,86.32
2022-11-17T21:22:21.759Z,85.90
2022-11-17T21:25:24.930Z,86.08
2022-11-17T21:28:38.739Z,86.21
2022-11-17T21:31:42.257Z,86.93
2022-11-17T21:34:49.655Z,86.95
2022-11-17T21:37:52.775Z,86.52
2022-11-17T21:40:55.417Z,86.54
2022-11-17T21:44:00.141Z,86.96
2022-11-17T21:47:02.741Z,87.49
2022-11-17T21:50:06.233Z,88.14
2022-11-17T21:53:08.726Z,87.70
2022-11-17T21:56:12.564Z,87.60
2022-11-17T21:59:17.225Z,87.81
2022-11-17T22:02:22.270Z,87.07
2022-11-17T22:05:25.094Z,87.40
2022-11-17T22:08:27.739Z,88.35
2022-11-17T22:11:38.307Z,89.32
2022-11-17T22:14:41.223Z,89.90
2022-11-17T22:17:44.176Z,89.95
2022-11-17T22:20:53.301Z,90.28
2022-11-17T22:23:56.318Z,89.42
2022-11-17T22:26:58.938Z,89.28
2022-11-17T22:30:01.876Z,88.45
2022-11-17T22:33:04.737Z,88.50
2022-11-17T22:36:08.044Z,88.60
2022-11-17T22:39:10.780Z,88.41
2022-11-17T22:42:15.575Z,88.13
2022-11-17T22:45:18.329Z,87.67
2022-11-17T22:48:21.355Z,87.41
2022-11-17T22:51:43.553Z,87.84
2022-11-17T22:54:46.500Z,88.52
2022-11-17T22:57:49.101Z,88.80
2022-11-17T23:00:53.145Z,88.91
2022-11-17T23:03:55.776Z,88.69
2022-11-17T23:06:58.825Z,88.85
2022-11-17T23:10:02.126Z,88.95
2022-11-17T23:13:05.240Z,88.50
2022-11-17T23:16:08.300Z,88.36
2022-11-17T23:19:14.357Z,87.94
2022-11-17T23:22:17.785Z,87.82
2022-11-17T23:25:21.071Z,87.05
2022-11-17T23:28:23.587Z,86.61
2022-11-17T23:31:29.472Z,87.03
2022-11-17T23:34:33.120Z,87.57
2022-11-17T23:37:36.063Z,88.14
2022-11-17T23:40:38.630Z,87.72
2022-11-17T23:43:42.400Z,87.63
2022-11-17T23:46:44.979Z,87.58
2022-11-17T23:49:47.841Z,87.61
2022-11-17T23:52:50.428Z,87.62
2022-11-17T23:55:57.565Z,87.83
2022-11-17T23:59:00.482Z,87.44
